Terminal Aerodrome Forecast
Issued by NWS Portland, OR

Home | Current Version | Previous Version | Text Only | Print | Product List | Glossary On
Versions: 1 2 3 4 5 6 7 8 9 10 11 12 13 14 15 16 17 18 19 20 21 22 23 24 25 26 27 28 29 30 31 32 33 34 35 36 37 38 39 40 41 42 43 44 45
000
FTUS46 KPQR 281127
TAFHIO
TAF
KHIO 281127Z 2812/2912 21005KT 4SM -SHRA BR SCT030 OVC045
     FM281900 26006KT P6SM VCSH SCT025 BKN040
     FM290200 24005KT 6SM BR VCSH SCT020 OVC035
     FM290600 26004KT 4SM -SHRA BR SCT015 OVC025=

USA.gov is the U.S. government's official web portal to all federal, state and local government web resources and services.